createdAt,value
2019-06-26T00:00:12.653Z,40.98
2019-06-26T00:02:41.168Z,43.23
2019-06-26T00:05:10.074Z,41.25
2019-06-26T00:07:38.558Z,41.40
2019-06-26T00:10:07.628Z,42.58
2019-06-26T00:12:36.096Z,43.95
2019-06-26T00:15:07.111Z,42.83
2019-06-26T00:17:35.981Z,43.08
2019-06-26T00:20:05.785Z,44.83
2019-06-26T00:22:34.257Z,42.73
2019-06-26T00:25:03.280Z,43.48
2019-06-26T00:27:31.740Z,42.10
2019-06-26T00:30:00.228Z,45.78
2019-06-26T00:32:28.684Z,43.83
2019-06-26T00:34:57.251Z,46.73
2019-06-26T00:37:25.710Z,44.30
2019-06-26T00:39:54.177Z,47.08
2019-06-26T00:42:22.657Z,46.88
2019-06-26T00:44:51.184Z,44.98
2019-06-26T00:47:19.669Z,43.68
2019-06-26T00:49:48.141Z,43.25
2019-06-26T00:52:16.823Z,43.30
2019-06-26T00:54:46.830Z,40.80
2019-06-26T00:57:15.282Z,43.40
2019-06-26T00:59:43.762Z,42.95
2019-06-26T01:02:12.258Z,42.88
2019-06-26T01:04:42.457Z,42.03
2019-06-26T01:07:11.035Z,45.55
2019-06-26T01:09:39.515Z,44.25
2019-06-26T01:12:07.982Z,44.13
2019-06-26T01:14:36.463Z,44.58
2019-06-26T01:17:05.044Z,44.30
2019-06-26T01:19:33.644Z,44.73
2019-06-26T01:22:02.579Z,45.28
2019-06-26T01:24:31.117Z,42.62
2019-06-26T01:26:59.581Z,44.67
2019-06-26T01:29:28.118Z,44.13
2019-06-26T01:31:56.648Z,41.63
2019-06-26T01:34:25.133Z,41.63
2019-06-26T01:36:53.696Z,42.15
2019-06-26T01:39:22.143Z,42.78
2019-06-26T01:41:50.708Z,42.60
2019-06-26T01:44:21.318Z,41.98
2019-06-26T01:46:51.341Z,43.70
2019-06-26T01:49:19.836Z,41.33
2019-06-26T01:51:48.387Z,40.78
2019-06-26T01:54:16.965Z,44.20
2019-06-26T01:57:04.898Z,44.48
2019-06-26T01:59:36.493Z,42.90
2019-06-26T02:02:05.101Z,44.18
2019-06-26T02:04:33.583Z,43.45
2019-06-26T02:07:02.171Z,46.70
2019-06-26T02:09:30.628Z,45.73
2019-06-26T02:12:00.526Z,45.03
2019-06-26T02:14:31.491Z,45.45
2019-06-26T02:16:59.604Z,45.58
2019-06-26T02:19:28.068Z,46.08
2019-06-26T02:21:56.606Z,45.90
2019-06-26T02:24:25.089Z,44.88
2019-06-26T02:26:53.551Z,46.88
2019-06-26T02:29:22.201Z,46.80
2019-06-26T02:31:53.502Z,46.65
2019-06-26T02:34:22.008Z,48.63
2019-06-26T02:36:50.472Z,48.13
2019-06-26T02:39:18.939Z,47.00
2019-06-26T02:41:47.418Z,48.70
2019-06-26T02:44:15.890Z,46.70
2019-06-26T02:46:44.443Z,46.68
2019-06-26T02:49:12.906Z,46.58
2019-06-26T02:51:41.485Z,47.83
2019-06-26T02:54:10.020Z,48.63
2019-06-26T02:56:38.486Z,45.35
2019-06-26T02:59:06.960Z,47.70
2019-06-26T03:01:35.438Z,46.63
2019-06-26T03:04:04.385Z,47.05
2019-06-26T03:06:32.912Z,46.20
2019-06-26T03:09:01.416Z,47.83
2019-06-26T03:11:30.324Z,46.95
2019-06-26T03:13:58.920Z,45.38
2019-06-26T03:16:27.400Z,45.48
2019-06-26T03:18:55.874Z,46.10
2019-06-26T03:21:24.487Z,47.48
2019-06-26T03:23:52.951Z,46.88
2019-06-26T03:26:21.537Z,46.53
2019-06-26T03:28:50.003Z,45.78
2019-06-26T03:31:18.473Z,45.58
2019-06-26T03:33:50.041Z,44.23
2019-06-26T03:36:18.589Z,43.92
2019-06-26T03:38:47.257Z,42.70
2019-06-26T03:41:15.786Z,44.00
2019-06-26T03:43:44.287Z,42.83
2019-06-26T03:46:12.755Z,44.42
2019-06-26T03:48:41.215Z,45.92
2019-06-26T03:51:09.687Z,44.30
2019-06-26T03:53:38.150Z,40.92
2019-06-26T03:56:06.623Z,40.20
2019-06-26T03:58:35.159Z,41.80
2019-06-26T04:01:03.678Z,41.23
2019-06-26T04:03:32.164Z,44.27
2019-06-26T04:06:00.614Z,45.73
2019-06-26T04:08:29.123Z,43.80
2019-06-26T04:10:57.644Z,43.13
2019-06-26T04:13:26.107Z,41.13
2019-06-26T04:15:54.584Z,42.33
2019-06-26T04:18:23.060Z,42.85
2019-06-26T04:20:51.748Z,43.30
2019-06-26T04:23:20.255Z,43.20
2019-06-26T04:25:48.756Z,44.53
2019-06-26T04:28:17.297Z,42.03
2019-06-26T04:30:45.763Z,44.63
2019-06-26T04:33:14.328Z,43.98
2019-06-26T04:35:42.786Z,43.58
2019-06-26T04:38:11.271Z,44.23
2019-06-26T04:40:39.808Z,45.08
2019-06-26T04:43:08.256Z,46.05
2019-06-26T04:45:36.730Z,45.23
2019-06-26T04:48:07.198Z,45.48
2019-06-26T04:50:35.417Z,43.78
2019-06-26T04:53:03.879Z,44.38
2019-06-26T04:55:32.340Z,44.53
2019-06-26T04:58:00.818Z,44.75
2019-06-26T05:00:29.289Z,46.42
2019-06-26T05:02:57.784Z,43.58
2019-06-26T05:05:39.174Z,39.88
2019-06-26T05:07:56.659Z,39.33
2019-06-26T05:10:25.140Z,38.25
2019-06-26T05:12:53.595Z,38.35
2019-06-26T05:15:22.153Z,37.50
2019-06-26T05:17:50.610Z,39.15
2019-06-26T05:20:19.216Z,38.42
2019-06-26T05:22:47.759Z,35.60
2019-06-26T05:25:16.469Z,36.93
2019-06-26T05:27:46.664Z,35.80
2019-06-26T05:30:16.393Z,35.63
2019-06-26T05:32:44.888Z,35.75
2019-06-26T05:35:13.874Z,36.03
2019-06-26T05:37:42.422Z,34.63
2019-06-26T05:40:11.945Z,37.25
2019-06-26T05:42:40.451Z,35.15
2019-06-26T05:45:09.703Z,35.58
2019-06-26T05:47:38.263Z,35.52
2019-06-26T05:50:09.502Z,37.65
2019-06-26T05:52:42.003Z,39.08
2019-06-26T05:55:08.860Z,37.93
2019-06-26T05:57:37.406Z,37.15
2019-06-26T06:00:10.823Z,38.92
2019-06-26T06:02:39.395Z,38.38
2019-06-26T06:05:08.812Z,38.35
2019-06-26T06:07:37.650Z,36.95
2019-06-26T06:10:08.132Z,37.80
2019-06-26T06:12:36.856Z,38.58
2019-06-26T06:15:08.885Z,39.05
2019-06-26T06:17:37.619Z,38.55
2019-06-26T06:20:08.015Z,40.33
2019-06-26T06:22:36.562Z,39.90
2019-06-26T06:25:06.370Z,37.95
2019-06-26T06:27:35.139Z,40.28
2019-06-26T06:30:05.244Z,39.03
2019-06-26T06:32:33.773Z,38.45
2019-06-26T06:35:02.258Z,39.00
2019-06-26T06:37:33.324Z,38.98
2019-06-26T06:40:01.967Z,39.48
2019-06-26T06:42:30.462Z,39.48
2019-06-26T06:44:58.977Z,41.18
2019-06-26T06:47:27.474Z,38.92
2019-06-26T06:49:55.995Z,39.42
2019-06-26T06:52:24.489Z,38.35
2019-06-26T06:54:53.011Z,40.25
2019-06-26T06:57:21.474Z,41.48
2019-06-26T06:59:49.954Z,38.98
2019-06-26T07:02:18.407Z,43.35
2019-06-26T07:04:46.887Z,43.15
2019-06-26T07:07:15.348Z,40.40
2019-06-26T07:09:43.823Z,42.10
2019-06-26T07:12:12.291Z,41.58
2019-06-26T07:14:40.754Z,40.80
2019-06-26T07:17:20.072Z,41.35
2019-06-26T07:19:39.612Z,43.65
2019-06-26T07:22:08.067Z,41.80
2019-06-26T07:24:36.538Z,40.75
2019-06-26T07:27:05.142Z,41.60
2019-06-26T07:29:33.935Z,39.50
2019-06-26T07:32:02.403Z,38.92
2019-06-26T07:34:31.587Z,41.05
2019-06-26T07:37:00.076Z,40.23
2019-06-26T07:39:28.606Z,39.30
2019-06-26T07:41:57.072Z,41.83
2019-06-26T07:44:25.532Z,41.02
2019-06-26T07:46:54.054Z,38.15
2019-06-26T07:49:22.532Z,40.88
2019-06-26T07:51:51.072Z,39.70
2019-06-26T07:54:19.643Z,41.10
2019-06-26T07:56:48.100Z,39.58
2019-06-26T07:59:16.565Z,38.78
2019-06-26T08:01:45.065Z,40.45
2019-06-26T08:04:13.577Z,38.13
2019-06-26T08:06:42.067Z,38.33
2019-06-26T08:09:10.534Z,39.85
2019-06-26T08:11:38.996Z,39.45
2019-06-26T08:14:07.555Z,38.67
2019-06-26T08:16:36.091Z,41.85
2019-06-26T08:19:04.719Z,40.55
2019-06-26T08:21:35.742Z,40.05
2019-06-26T08:24:04.539Z,38.33
2019-06-26T08:26:33.016Z,38.80
2019-06-26T08:29:01.488Z,38.38
2019-06-26T08:31:29.966Z,38.67
2019-06-26T08:33:58.434Z,38.08
2019-06-26T08:36:26.973Z,38.58
2019-06-26T08:38:55.441Z,36.70
2019-06-26T08:41:23.983Z,35.98
2019-06-26T08:43:52.475Z,36.48
2019-06-26T08:46:21.021Z,37.42
2019-06-26T08:48:51.915Z,38.67
2019-06-26T08:51:20.133Z,36.23
2019-06-26T08:53:48.680Z,39.20
2019-06-26T08:56:17.225Z,38.25
2019-06-26T08:58:45.672Z,38.63
2019-06-26T09:01:14.206Z,39.30
2019-06-26T09:03:42.704Z,38.25
2019-06-26T09:06:11.211Z,37.65
2019-06-26T09:08:39.680Z,38.08
2019-06-26T09:11:08.133Z,38.73
2019-06-26T09:13:36.592Z,39.20
2019-06-26T09:16:05.137Z,36.55
2019-06-26T09:18:35.864Z,39.30
2019-06-26T09:21:03.790Z,37.80
2019-06-26T09:23:32.251Z,39.13
2019-06-26T09:26:00.712Z,38.45
2019-06-26T09:28:29.191Z,37.95
2019-06-26T09:30:59.286Z,39.55
2019-06-26T09:33:27.761Z,40.78
2019-06-26T09:35:56.228Z,42.93
2019-06-26T09:38:24.753Z,42.08
2019-06-26T09:40:53.229Z,41.10
2019-06-26T09:43:21.689Z,40.70
2019-06-26T09:45:50.165Z,39.78
2019-06-26T09:48:18.614Z,38.75
2019-06-26T09:50:47.087Z,40.28
2019-06-26T09:53:15.586Z,38.08
2019-06-26T09:55:44.109Z,41.95
2019-06-26T09:58:13.594Z,36.73
2019-06-26T10:00:42.402Z,38.75
2019-06-26T10:03:10.847Z,39.58
2019-06-26T10:05:39.333Z,39.50
2019-06-26T10:08:07.851Z,40.08
2019-06-26T10:10:36.361Z,40.78
2019-06-26T10:13:04.901Z,38.60
2019-06-26T10:15:33.366Z,41.13
2019-06-26T10:18:01.865Z,38.95
2019-06-26T10:20:30.315Z,40.08
2019-06-26T10:22:58.977Z,39.53
2019-06-26T10:25:27.458Z,38.20
2019-06-26T10:27:56.106Z,38.50
2019-06-26T10:30:24.796Z,39.13
2019-06-26T10:32:53.334Z,36.63
2019-06-26T10:35:21.981Z,37.90
2019-06-26T10:37:50.445Z,36.80
2019-06-26T10:40:18.987Z,35.55
2019-06-26T10:42:47.537Z,34.78
2019-06-26T10:45:17.704Z,36.75
2019-06-26T10:47:46.218Z,34.50
2019-06-26T10:50:14.984Z,32.17
2019-06-26T10:52:43.829Z,34.50
2019-06-26T10:55:12.653Z,34.15
2019-06-26T10:57:41.211Z,34.35
2019-06-26T11:00:14.580Z,32.00
2019-06-26T11:02:43.044Z,30.68
2019-06-26T11:05:12.125Z,31.00
2019-06-26T11:07:40.606Z,32.03
2019-06-26T11:10:09.895Z,31.07
2019-06-26T11:12:39.258Z,28.92
2019-06-26T11:15:08.830Z,28.75
2019-06-26T11:17:37.301Z,26.70
2019-06-26T11:20:09.392Z,27.27
2019-06-26T11:22:38.038Z,27.45
2019-06-26T11:25:08.090Z,30.25
2019-06-26T11:27:36.773Z,28.32
2019-06-26T11:30:10.305Z,26.50
2019-06-26T11:32:40.348Z,26.93
2019-06-26T11:35:09.349Z,26.40
2019-06-26T11:37:37.969Z,25.57
2019-06-26T11:40:07.483Z,26.33
2019-06-26T11:42:36.104Z,25.80
2019-06-26T11:45:08.338Z,26.65
2019-06-26T11:47:37.314Z,27.25
2019-06-26T11:50:10.150Z,28.80
2019-06-26T11:52:38.911Z,28.85
2019-06-26T11:55:09.271Z,28.02
2019-06-26T11:57:37.816Z,30.10
2019-06-26T12:00:12.496Z,31.52
2019-06-26T12:02:40.965Z,31.05
2019-06-26T12:05:10.121Z,31.15
2019-06-26T12:07:38.614Z,30.43
2019-06-26T12:10:08.609Z,32.10
2019-06-26T12:12:37.324Z,32.35
2019-06-26T12:15:07.131Z,34.38
2019-06-26T12:17:35.793Z,34.58
2019-06-26T12:20:17.760Z,33.00
2019-06-26T12:22:35.989Z,34.03
2019-06-26T12:25:05.688Z,31.52
2019-06-26T12:27:34.176Z,35.45
2019-06-26T12:30:02.811Z,32.50
2019-06-26T12:32:31.362Z,34.67
2019-06-26T12:34:59.897Z,32.42
2019-06-26T12:37:37.532Z,32.67
2019-06-26T12:39:58.571Z,32.95
2019-06-26T12:42:27.087Z,30.80
2019-06-26T12:44:55.557Z,29.50
2019-06-26T12:47:24.037Z,33.58
2019-06-26T12:49:52.505Z,32.15
2019-06-26T12:52:21.056Z,32.53
2019-06-26T12:54:49.549Z,33.73
2019-06-26T12:57:18.098Z,30.77
2019-06-26T12:59:56.517Z,34.95
2019-06-26T13:02:16.749Z,37.25
2019-06-26T13:04:45.395Z,36.55
2019-06-26T13:07:14.025Z,35.45
2019-06-26T13:09:42.724Z,39.53
2019-06-26T13:12:11.855Z,38.00
2019-06-26T13:14:40.353Z,37.08
2019-06-26T13:17:08.807Z,36.35
2019-06-26T13:19:37.332Z,34.98
2019-06-26T13:22:05.921Z,37.50
2019-06-26T13:24:34.431Z,38.20
2019-06-26T13:27:02.983Z,36.65
2019-06-26T13:29:31.444Z,38.60
2019-06-26T13:31:59.930Z,35.80
2019-06-26T13:34:28.409Z,36.55
2019-06-26T13:36:56.941Z,35.60
2019-06-26T13:39:25.525Z,35.28
2019-06-26T13:41:54.024Z,34.40
2019-06-26T13:44:22.492Z,32.42
2019-06-26T13:46:50.937Z,31.52
2019-06-26T13:49:19.432Z,33.50
2019-06-26T13:51:47.887Z,32.40
2019-06-26T13:54:16.335Z,30.52
2019-06-26T13:56:44.811Z,31.93
2019-06-26T13:59:13.265Z,31.12
2019-06-26T14:01:42.232Z,29.77
2019-06-26T14:04:10.759Z,28.87
2019-06-26T14:06:39.330Z,31.50
2019-06-26T14:09:08.357Z,31.37
2019-06-26T14:11:36.816Z,25.00
2019-06-26T14:14:05.353Z,25.52
2019-06-26T14:16:33.807Z,23.38
2019-06-26T14:19:02.301Z,22.48
2019-06-26T14:21:31.065Z,24.07
2019-06-26T14:23:59.597Z,23.30
2019-06-26T14:26:28.049Z,22.50
2019-06-26T14:28:56.514Z,21.97
2019-06-26T14:31:24.981Z,21.05
2019-06-26T14:33:53.464Z,19.32
2019-06-26T14:36:23.399Z,23.67
2019-06-26T14:38:52.130Z,21.05
2019-06-26T14:41:20.715Z,19.52
2019-06-26T14:43:49.235Z,19.20
2019-06-26T14:46:17.759Z,20.02
2019-06-26T14:48:46.231Z,19.02
2019-06-26T14:51:14.777Z,19.00
2019-06-26T14:53:45.073Z,18.27
2019-06-26T14:56:14.467Z,17.32
2019-06-26T14:58:42.978Z,17.45
2019-06-26T15:01:11.435Z,16.50
2019-06-26T15:03:39.971Z,16.12
2019-06-26T15:06:16.506Z,17.98
2019-06-26T15:08:38.637Z,15.93
2019-06-26T15:11:07.114Z,13.78
2019-06-26T15:13:37.710Z,15.15
2019-06-26T15:16:06.212Z,13.93
2019-06-26T15:18:34.684Z,13.85
2019-06-26T15:21:03.139Z,14.65
2019-06-26T15:23:31.636Z,17.70
2019-06-26T15:26:00.089Z,17.17
2019-06-26T15:28:28.567Z,17.12
2019-06-26T15:30:57.027Z,18.62
2019-06-26T15:33:25.599Z,17.32
2019-06-26T15:35:54.063Z,21.55
2019-06-26T15:38:22.539Z,21.35
2019-06-26T15:40:51.017Z,22.07
2019-06-26T15:43:19.481Z,23.50
2019-06-26T15:45:47.993Z,24.30
2019-06-26T15:48:16.465Z,23.32
2019-06-26T15:50:44.917Z,22.65
2019-06-26T15:53:13.398Z,21.55
2019-06-26T15:55:41.855Z,21.93
2019-06-26T15:58:10.969Z,23.52
2019-06-26T16:00:39.505Z,20.35
2019-06-26T16:03:08.068Z,20.37
2019-06-26T16:05:36.564Z,19.95
2019-06-26T16:08:05.034Z,19.77
2019-06-26T16:10:34.656Z,22.10
2019-06-26T16:13:03.448Z,20.30
2019-06-26T16:15:32.167Z,19.37
2019-06-26T16:18:05.354Z,22.75
2019-06-26T16:20:36.818Z,21.02
2019-06-26T16:23:05.306Z,21.93
2019-06-26T16:25:33.782Z,20.97
2019-06-26T16:28:05.684Z,19.77
2019-06-26T16:30:32.572Z,17.65
2019-06-26T16:33:01.080Z,17.73
2019-06-26T16:35:29.621Z,17.07
2019-06-26T16:37:58.098Z,15.83
2019-06-26T16:40:26.632Z,15.30
2019-06-26T16:42:55.104Z,13.40
2019-06-26T16:45:23.716Z,14.47
2019-06-26T16:47:52.189Z,13.78
2019-06-26T16:50:20.973Z,13.08
2019-06-26T16:52:50.259Z,13.00
2019-06-26T16:55:18.924Z,12.68
2019-06-26T16:57:47.420Z,12.33
2019-06-26T17:00:16.327Z,11.50
2019-06-26T17:02:44.932Z,10.90
2019-06-26T17:05:13.642Z,9.38
2019-06-26T17:07:42.133Z,8.63
2019-06-26T17:10:12.045Z,7.40
2019-06-26T17:12:40.582Z,7.47
2019-06-26T17:15:12.521Z,7.30
2019-06-26T17:17:40.990Z,6.62
2019-06-26T17:20:12.939Z,6.83
2019-06-26T17:22:43.610Z,6.70
2019-06-26T17:25:12.328Z,6.35
2019-06-26T17:27:40.791Z,6.53
2019-06-26T17:30:09.979Z,6.25
2019-06-26T17:32:38.441Z,6.00
2019-06-26T17:35:07.957Z,6.08
2019-06-26T17:37:36.609Z,5.80
2019-06-26T17:40:06.566Z,5.28
2019-06-26T17:42:35.133Z,4.72
2019-06-26T17:45:07.322Z,5.03
2019-06-26T17:47:38.547Z,4.58
2019-06-26T17:50:06.600Z,4.08
2019-06-26T17:52:38.265Z,4.80
2019-06-26T17:55:09.023Z,4.67
2019-06-26T17:57:37.683Z,4.25
2019-06-26T18:00:08.765Z,4.50
2019-06-26T18:02:37.894Z,4.20
2019-06-26T18:05:08.595Z,4.03
2019-06-26T18:07:37.082Z,3.90
2019-06-26T18:10:06.290Z,4.08
2019-06-26T18:12:34.916Z,3.90
2019-06-26T18:15:04.425Z,3.98
2019-06-26T18:17:33.064Z,4.10
2019-06-26T18:20:01.541Z,3.90
2019-06-26T18:22:30.074Z,3.50
2019-06-26T18:24:58.585Z,3.77
2019-06-26T18:27:27.046Z,3.65
2019-06-26T18:29:55.503Z,3.33
2019-06-26T18:32:23.987Z,3.52
2019-06-26T18:34:52.441Z,3.10
2019-06-26T18:37:21.090Z,3.17
2019-06-26T18:39:49.537Z,3.70
2019-06-26T18:42:17.983Z,3.40
2019-06-26T18:44:46.454Z,3.40
2019-06-26T18:47:14.909Z,3.20
2019-06-26T18:49:43.440Z,3.20
2019-06-26T18:52:12.026Z,3.60
2019-06-26T18:54:40.491Z,3.40
2019-06-26T18:57:08.965Z,3.22
2019-06-26T18:59:37.427Z,3.00
2019-06-26T19:02:05.934Z,3.30
2019-06-26T19:04:34.842Z,3.35
2019-06-26T19:07:03.304Z,3.17
2019-06-26T19:09:31.836Z,2.77
2019-06-26T19:12:00.450Z,3.45
2019-06-26T19:14:29.029Z,3.05
2019-06-26T19:16:57.579Z,2.80
2019-06-26T19:19:26.030Z,3.08
2019-06-26T19:21:54.517Z,2.95
2019-06-26T19:24:22.999Z,2.80
2019-06-26T19:26:51.507Z,2.75
2019-06-26T19:29:19.992Z,2.92
2019-06-26T19:31:48.446Z,3.12
2019-06-26T19:34:16.921Z,2.62
2019-06-26T19:36:50.047Z,2.60
2019-06-26T19:39:15.588Z,2.35
2019-06-26T19:41:44.090Z,2.70
2019-06-26T19:44:12.592Z,2.77
2019-06-26T19:46:44.088Z,2.67
2019-06-26T19:49:12.550Z,2.87
2019-06-26T19:51:41.093Z,2.65
2019-06-26T19:54:25.768Z,2.50
2019-06-26T19:56:39.745Z,2.40
2019-06-26T19:59:08.186Z,2.15
2019-06-26T20:01:36.758Z,2.40
2019-06-26T20:04:05.291Z,2.30
2019-06-26T20:06:33.744Z,2.27
2019-06-26T20:09:02.288Z,2.20
2019-06-26T20:11:30.875Z,2.20
2019-06-26T20:13:59.350Z,2.45
2019-06-26T20:16:27.990Z,2.20
2019-06-26T20:18:56.548Z,2.75
2019-06-26T20:21:25.021Z,2.40
2019-06-26T20:23:53.488Z,2.20
2019-06-26T20:26:21.967Z,2.40
2019-06-26T20:28:50.495Z,2.37
2019-06-26T20:31:20.564Z,2.50
2019-06-26T20:33:49.017Z,2.17
2019-06-26T20:36:17.519Z,2.40
2019-06-26T20:38:46.146Z,2.30
2019-06-26T20:41:14.588Z,2.02
2019-06-26T20:43:43.055Z,2.22
2019-06-26T20:46:15.460Z,2.25
2019-06-26T20:48:43.245Z,2.20
2019-06-26T20:51:11.696Z,2.17
2019-06-26T20:53:40.263Z,2.30
2019-06-26T20:56:08.791Z,2.60
2019-06-26T20:58:37.247Z,2.22
2019-06-26T21:01:05.735Z,2.27
2019-06-26T21:03:34.291Z,2.10
2019-06-26T21:06:02.965Z,2.08
2019-06-26T21:08:31.596Z,2.20
2019-06-26T21:11:00.151Z,2.20
2019-06-26T21:13:28.617Z,2.00
2019-06-26T21:15:57.074Z,2.37
2019-06-26T21:18:25.541Z,2.45
2019-06-26T21:20:53.991Z,2.22
2019-06-26T21:23:24.007Z,2.33
2019-06-26T21:25:52.602Z,2.50
2019-06-26T21:28:21.099Z,2.33
2019-06-26T21:30:49.548Z,2.67
2019-06-26T21:33:18.000Z,2.30
2019-06-26T21:35:46.465Z,2.52
2019-06-26T21:38:14.960Z,2.15
2019-06-26T21:40:43.495Z,2.55
2019-06-26T21:43:11.962Z,2.52
2019-06-26T21:45:40.573Z,2.47
2019-06-26T21:48:09.227Z,2.75
2019-06-26T21:50:37.688Z,2.22
2019-06-26T21:53:06.238Z,2.42
2019-06-26T21:55:35.147Z,2.50
2019-06-26T21:58:03.929Z,2.83
2019-06-26T22:00:34.231Z,2.50
2019-06-26T22:03:02.832Z,2.40
2019-06-26T22:05:31.449Z,2.77
2019-06-26T22:08:00.078Z,2.50
2019-06-26T22:10:28.658Z,3.10
2019-06-26T22:12:57.178Z,2.87
2019-06-26T22:15:25.695Z,3.42
2019-06-26T22:17:54.167Z,3.20
2019-06-26T22:20:22.853Z,3.00
2019-06-26T22:22:51.320Z,2.95
2019-06-26T22:25:19.922Z,2.45
2019-06-26T22:27:48.394Z,3.00
2019-06-26T22:30:20.646Z,2.35
2019-06-26T22:32:49.113Z,3.12
2019-06-26T22:35:17.834Z,2.70
2019-06-26T22:37:46.290Z,3.00
2019-06-26T22:40:15.300Z,2.85
2019-06-26T22:42:43.924Z,3.00
2019-06-26T22:45:12.927Z,2.70
2019-06-26T22:47:41.384Z,3.10
2019-06-26T22:50:10.185Z,3.00
2019-06-26T22:52:38.664Z,2.98
2019-06-26T22:55:07.672Z,3.22
2019-06-26T22:57:36.245Z,2.60
2019-06-26T23:00:07.380Z,2.80
2019-06-26T23:02:35.914Z,2.95
2019-06-26T23:05:06.431Z,2.80
2019-06-26T23:07:34.884Z,3.35
2019-06-26T23:10:04.373Z,3.00
2019-06-26T23:12:32.895Z,2.87
2019-06-26T23:15:01.622Z,2.70
2019-06-26T23:17:30.370Z,3.00
2019-06-26T23:19:58.815Z,3.02
2019-06-26T23:22:27.300Z,3.50
2019-06-26T23:24:55.815Z,3.25
2019-06-26T23:27:24.453Z,2.90
2019-06-26T23:29:52.910Z,3.08
2019-06-26T23:32:21.399Z,2.90
2019-06-26T23:34:49.844Z,3.12
2019-06-26T23:37:18.299Z,3.67
2019-06-26T23:39:46.837Z,3.00
2019-06-26T23:42:15.313Z,2.85
2019-06-26T23:44:43.836Z,3.42
2019-06-26T23:47:12.299Z,3.10
2019-06-26T23:49:42.516Z,2.80
2019-06-26T23:52:11.038Z,3.10
2019-06-26T23:54:39.479Z,3.00
2019-06-26T23:57:07.951Z,2.95
2019-06-26T23:59:36.407Z,3.08
